< Typhoon 197026 1971 Season Typhoon 197102 >
Typhoon 197101 (SARAH)
General InformationTrack Information on Google Maps || Disaster Info.ResourceGoogle EarthGE AnimationAtom FeedGeoJSON
Detalied Best Track (Time Zone = UTC)
Year Month Day Hour Lat. Long. Pressure (hPa) Wind (kt) Class Image Chart
1971 1 8 00 7.2 139.2 1002 0 2 -- Chart
1971 1 8 06 7.9 139.1 1000 0 2 -- Chart
1971 1 8 12 8.6 138.8 1000 0 2 -- Chart
1971 1 8 18 9.5 138.6 1000 0 2 -- Chart
1971 1 9 00 10.2 138.3 998 0 2 -- Chart
1971 1 9 06 10.6 137.8 998 0 2 -- Chart
1971 1 9 12 11.1 137.3 994 0 2 -- Chart
1971 1 9 18 11.5 136.5 990 0 9 -- Chart
1971 1 10 00 10.8 136.7 990 0 9 -- Chart
1971 1 10 06 12.2 137.2 992 0 9 -- Chart
1971 1 10 12 13.4 137.8 996 0 9 -- Chart
1971 1 10 18 14.5 139.4 998 0 9 -- Chart
1971 1 11 00 15.0 140.5 1000 0 9 -- Chart
1971 1 11 06 15.4 140.9 1000 0 9 -- Chart
1971 1 11 12 15.8 141.5 1000 0 9 -- Chart
1971 1 11 18 15.9 142.7 1000 0 9 -- Chart
1971 1 12 00 16.1 144.2 1000 0 6 -- Chart
1971 1 12 06 16.2 146.6 1000 0 6 -- Chart
1971 1 12 12 17.2 149.2 1000 0 6 -- Chart
1971 1 12 18 18.3 150.9 1000 0 6 -- Chart
1971 1 13 00 19.6 152.4 1000 0 6 -- Chart
1971 1 13 06 20.0 154.5 1000 0 6 -- Chart
1971 1 13 12 20.0 157.2 1000 0 6 -- Chart
1971 1 13 18 21.0 161.1 1000 0 6 -- Chart
1971 1 14 00 21.0 164.0 1000 0 6 -- Chart
1971 1 14 06 21.0 168.0 1000 0 6 -- Chart
1971 1 14 12 22.0 171.9 1000 0 6 -- Chart
1971 1 14 18 22.1 176.1 1000 0 6 -- Chart
1971 1 15 00 23.2 178.8 1000 0 6 -- Chart
Japan Meteorological Agency Best Track Data | Correction Date : 1989-06-01
< Typhoon 197026 1971 Season Typhoon 197102 >

Help